sensor_id;sensor_type;location;lat;lon;timestamp;pressure;altitude;pressure_sealevel;temperature;humidity
34586;BME280;20816;50.950;11.108;2023-03-03T00:02:18;98964.19;;;1.05;100.00
34586;BME280;20816;50.950;11.108;2023-03-03T00:04:44;98963.94;;;0.93;100.00
34586;BME280;20816;50.950;11.108;2023-03-03T00:07:11;98961.34;;;0.93;100.00
34586;BME280;20816;50.950;11.108;2023-03-03T00:09:44;98958.47;;;0.80;100.00
34586;BME280;20816;50.950;11.108;2023-03-03T00:12:32;98958.34;;;0.74;100.00
34586;BME280;20816;50.950;11.108;2023-03-03T00:15:19;98957.75;;;0.86;100.00
34586;BME280;20816;50.950;11.108;2023-03-03T00:17:46;98962.94;;;0.88;100.00
34586;BME280;20816;50.950;11.108;2023-03-03T00:20:27;98970.03;;;0.96;100.00
34586;BME280;20816;50.950;11.108;2023-03-03T00:22:54;98964.75;;;0.90;100.00
34586;BME280;20816;50.950;11.108;2023-03-03T00:25:28;98960.50;;;0.94;100.00
34586;BME280;20816;50.950;11.108;2023-03-03T00:28:07;98967.06;;;0.79;100.00
34586;BME280;20816;50.950;11.108;2023-03-03T00:30:41;98970.50;;;0.78;100.00
34586;BME280;20816;50.950;11.108;2023-03-03T00:33:23;98970.59;;;0.81;100.00
34586;BME280;20816;50.950;11.108;2023-03-03T00:38:52;98970.25;;;0.68;100.00
34586;BME280;20816;50.950;11.108;2023-03-03T00:41:22;98968.91;;;0.83;100.00
34586;BME280;20816;50.950;11.108;2023-03-03T00:43:52;98972.03;;;0.70;100.00
34586;BME280;20816;50.950;11.108;2023-03-03T00:46:24;98971.19;;;0.71;100.00
34586;BME280;20816;50.950;11.108;2023-03-03T00:48:50;98972.66;;;0.60;100.00
34586;BME280;20816;50.950;11.108;2023-03-03T00:51:21;98984.81;;;0.64;100.00
34586;BME280;20816;50.950;11.108;2023-03-03T00:53:57;98982.19;;;0.61;100.00
34586;BME280;20816;50.950;11.108;2023-03-03T00:56:27;98977.59;;;0.49;100.00
34586;BME280;20816;50.950;11.108;2023-03-03T00:58:54;98978.69;;;0.59;100.00
34586;BME280;20816;50.950;11.108;2023-03-03T01:01:20;98977.00;;;0.61;100.00
34586;BME280;20816;50.950;11.108;2023-03-03T01:03:47;98976.94;;;0.58;100.00
34586;BME280;20816;50.950;11.108;2023-03-03T01:06:13;98975.41;;;0.66;100.00
34586;BME280;20816;50.950;11.108;2023-03-03T01:08:44;98982.78;;;0.49;100.00
34586;BME280;20816;50.950;11.108;2023-03-03T01:11:14;98971.47;;;0.46;100.00
34586;BME280;20816;50.950;11.108;2023-03-03T01:13:45;98967.25;;;0.49;100.00
34586;BME280;20816;50.950;11.108;2023-03-03T01:16:24;98962.13;;;0.51;100.00
34586;BME280;20816;50.950;11.108;2023-03-03T01:18:51;98965.31;;;0.41;100.00
34586;BME280;20816;50.950;11.108;2023-03-03T01:21:17;98960.84;;;0.34;100.00
34586;BME280;20816;50.950;11.108;2023-03-03T01:23:44;98972.78;;;0.30;100.00
34586;BME280;20816;50.950;11.108;2023-03-03T01:26:17;98984.84;;;0.30;100.00
34586;BME280;20816;50.950;11.108;2023-03-03T01:28:46;98971.25;;;0.37;100.00
34586;BME280;20816;50.950;11.108;2023-03-03T01:31:13;98963.41;;;0.34;100.00
34586;BME280;20816;50.950;11.108;2023-03-03T01:33:40;98962.50;;;0.32;100.00
34586;BME280;20816;50.950;11.108;2023-03-03T01:36:27;98970.25;;;0.32;100.00
34586;BME280;20816;50.950;11.108;2023-03-03T01:38:54;98979.72;;;0.31;100.00
34586;BME280;20816;50.950;11.108;2023-03-03T01:41:20;98987.59;;;0.36;100.00
34586;BME280;20816;50.950;11.108;2023-03-03T01:43:55;98971.13;;;0.32;100.00
34586;BME280;20816;50.950;11.108;2023-03-03T01:49:01;98984.28;;;0.41;100.00
34586;BME280;20816;50.950;11.108;2023-03-03T01:51:36;98981.81;;;0.46;100.00
34586;BME280;20816;50.950;11.108;2023-03-03T01:54:13;98986.78;;;0.38;100.00
34586;BME280;20816;50.950;11.108;2023-03-03T01:56:40;98991.75;;;0.31;100.00
34586;BME280;20816;50.950;11.108;2023-03-03T01:59:26;98989.13;;;0.27;100.00
34586;BME280;20816;50.950;11.108;2023-03-03T02:01:54;98983.03;;;0.25;100.00
34586;BME280;20816;50.950;11.108;2023-03-03T02:04:21;98980.66;;;0.33;100.00
34586;BME280;20816;50.950;11.108;2023-03-03T02:07:09;98987.41;;;0.28;100.00
34586;BME280;20816;50.950;11.108;2023-03-03T02:09:58;98971.19;;;0.34;100.00
34586;BME280;20816;50.950;11.108;2023-03-03T02:12:31;98964.19;;;0.31;100.00
34586;BME280;20816;50.950;11.108;2023-03-03T02:14:59;98966.78;;;0.31;100.00
34586;BME280;20816;50.950;11.108;2023-03-03T02:17:42;98973.63;;;0.29;100.00
34586;BME280;20816;50.950;11.108;2023-03-03T02:20:16;98971.88;;;0.28;100.00
34586;BME280;20816;50.950;11.108;2023-03-03T02:23:06;98960.66;;;0.26;100.00
34586;BME280;20816;50.950;11.108;2023-03-03T02:28:19;98964.78;;;0.19;100.00
34586;BME280;20816;50.950;11.108;2023-03-03T02:30:46;98952.75;;;0.21;100.00
34586;BME280;20816;50.950;11.108;2023-03-03T02:33:13;98951.06;;;0.22;100.00
34586;BME280;20816;50.950;11.108;2023-03-03T02:35:40;98953.91;;;0.33;100.00
34586;BME280;20816;50.950;11.108;2023-03-03T02:38:16;98959.66;;;0.21;100.00
34586;BME280;20816;50.950;11.108;2023-03-03T02:40:52;98964.47;;;0.07;100.00
34586;BME280;20816;50.950;11.108;2023-03-03T02:43:54;98967.81;;;0.03;100.00
34586;BME280;20816;50.950;11.108;2023-03-03T02:46:27;98966.22;;;0.08;100.00
34586;BME280;20816;50.950;11.108;2023-03-03T02:48:54;98953.22;;;0.05;100.00
34586;BME280;20816;50.950;11.108;2023-03-03T02:51:21;98956.41;;;-0.05;100.00
34586;BME280;20816;50.950;11.108;2023-03-03T02:53:47;98954.69;;;-0.05;100.00
34586;BME280;20816;50.950;11.108;2023-03-03T02:56:19;98960.06;;;0.03;100.00
34586;BME280;20816;50.950;11.108;2023-03-03T02:58:46;98963.56;;;0.05;100.00
34586;BME280;20816;50.950;11.108;2023-03-03T03:01:16;98976.50;;;0.07;100.00
34586;BME280;20816;50.950;11.108;2023-03-03T03:03:43;98970.50;;;0.08;100.00
34586;BME280;20816;50.950;11.108;2023-03-03T03:06:10;98969.75;;;0.12;100.00
34586;BME280;20816;50.950;11.108;2023-03-03T03:08:36;98974.13;;;0.14;100.00
34586;BME280;20816;50.950;11.108;2023-03-03T03:11:04;98976.44;;;0.04;100.00
34586;BME280;20816;50.950;11.108;2023-03-03T03:13:34;98965.16;;;0.00;100.00
34586;BME280;20816;50.950;11.108;2023-03-03T03:16:02;98968.41;;;-0.07;100.00
34586;BME280;20816;50.950;11.108;2023-03-03T03:18:29;98978.59;;;-0.13;100.00
34586;BME280;20816;50.950;11.108;2023-03-03T03:20:55;98976.28;;;-0.03;100.00
34586;BME280;20816;50.950;11.108;2023-03-03T03:23:29;98978.81;;;-0.04;100.00
34586;BME280;20816;50.950;11.108;2023-03-03T03:26:01;98975.34;;;-0.06;100.00
34586;BME280;20816;50.950;11.108;2023-03-03T03:28:28;98967.28;;;-0.17;100.00
34586;BME280;20816;50.950;11.108;2023-03-03T03:30:54;98982.66;;;-0.21;100.00
34586;BME280;20816;50.950;11.108;2023-03-03T03:33:22;98990.16;;;-0.31;100.00
34586;BME280;20816;50.950;11.108;2023-03-03T03:35:50;98988.31;;;-0.35;100.00
34586;BME280;20816;50.950;11.108;2023-03-03T03:38:22;98979.75;;;-0.34;100.00
34586;BME280;20816;50.950;11.108;2023-03-03T03:40:49;98987.75;;;-0.24;100.00
34586;BME280;20816;50.950;11.108;2023-03-03T03:43:16;98981.66;;;-0.26;100.00
34586;BME280;20816;50.950;11.108;2023-03-03T03:45:43;98974.63;;;-0.32;100.00
34586;BME280;20816;50.950;11.108;2023-03-03T03:48:12;98983.56;;;-0.19;100.00
34586;BME280;20816;50.950;11.108;2023-03-03T03:50:44;98986.06;;;-0.24;100.00
34586;BME280;20816;50.950;11.108;2023-03-03T03:53:11;98987.81;;;-0.23;100.00
34586;BME280;20816;50.950;11.108;2023-03-03T03:55:37;98977.75;;;-0.12;100.00
34586;BME280;20816;50.950;11.108;2023-03-03T03:58:07;98980.97;;;-0.21;100.00
34586;BME280;20816;50.950;11.108;2023-03-03T04:00:34;98973.03;;;-0.27;100.00
34586;BME280;20816;50.950;11.108;2023-03-03T04:03:03;98960.75;;;-0.36;100.00
34586;BME280;20816;50.950;11.108;2023-03-03T04:05:30;98959.25;;;-0.28;100.00
34586;BME280;20816;50.950;11.108;2023-03-03T04:07:56;98967.59;;;-0.38;100.00
34586;BME280;20816;50.950;11.108;2023-03-03T04:10:23;98976.50;;;-0.26;100.00
34586;BME280;20816;50.950;11.108;2023-03-03T04:13:01;98971.28;;;-0.28;100.00
34586;BME280;20816;50.950;11.108;2023-03-03T04:15:27;98970.56;;;-0.24;100.00
34586;BME280;20816;50.950;11.108;2023-03-03T04:17:54;98969.69;;;-0.24;100.00
34586;BME280;20816;50.950;11.108;2023-03-03T04:20:21;98974.69;;;-0.31;100.00
34586;BME280;20816;50.950;11.108;2023-03-03T04:22:47;98986.81;;;-0.26;100.00
34586;BME280;20816;50.950;11.108;2023-03-03T04:25:15;98980.09;;;-0.21;100.00
34586;BME280;20816;50.950;11.108;2023-03-03T04:27:51;98984.25;;;-0.26;100.00
34586;BME280;20816;50.950;11.108;2023-03-03T04:30:18;98993.81;;;-0.24;100.00
34586;BME280;20816;50.950;11.108;2023-03-03T04:32:44;98987.88;;;-0.20;100.00
34586;BME280;20816;50.950;11.108;2023-03-03T04:35:18;98991.13;;;-0.27;100.00
34586;BME280;20816;50.950;11.108;2023-03-03T04:37:47;98992.09;;;-0.23;100.00
34586;BME280;20816;50.950;11.108;2023-03-03T04:40:14;98991.31;;;-0.19;100.00
34586;BME280;20816;50.950;11.108;2023-03-03T04:42:41;98993.84;;;-0.22;100.00
34586;BME280;20816;50.950;11.108;2023-03-03T04:45:11;98999.69;;;-0.28;100.00
34586;BME280;20816;50.950;11.108;2023-03-03T04:47:40;99000.69;;;-0.24;100.00
34586;BME280;20816;50.950;11.108;2023-03-03T04:50:11;99002.94;;;-0.35;100.00
34586;BME280;20816;50.950;11.108;2023-03-03T04:52:38;98996.84;;;-0.39;100.00
34586;BME280;20816;50.950;11.108;2023-03-03T04:55:05;98996.03;;;-0.36;100.00
34586;BME280;20816;50.950;11.108;2023-03-03T04:57:40;99000.94;;;-0.45;100.00
34586;BME280;20816;50.950;11.108;2023-03-03T05:00:14;99001.88;;;-0.42;100.00
34586;BME280;20816;50.950;11.108;2023-03-03T05:02:41;99008.53;;;-0.50;100.00
34586;BME280;20816;50.950;11.108;2023-03-03T05:05:15;99009.38;;;-0.51;100.00
34586;BME280;20816;50.950;11.108;2023-03-03T05:07:52;99012.22;;;-0.72;100.00
34586;BME280;20816;50.950;11.108;2023-03-03T05:10:19;99018.53;;;-0.62;100.00
34586;BME280;20816;50.950;11.108;2023-03-03T05:12:53;99019.25;;;-0.66;100.00
34586;BME280;20816;50.950;11.108;2023-03-03T05:15:22;99026.09;;;-0.68;100.00
34586;BME280;20816;50.950;11.108;2023-03-03T05:17:51;99018.00;;;-0.80;100.00
34586;BME280;20816;50.950;11.108;2023-03-03T05:20:18;99020.22;;;-0.64;100.00
34586;BME280;20816;50.950;11.108;2023-03-03T05:22:45;99015.31;;;-0.55;100.00
34586;BME280;20816;50.950;11.108;2023-03-03T05:25:33;99024.34;;;-0.69;100.00
34586;BME280;20816;50.950;11.108;2023-03-03T05:27:59;99024.00;;;-0.81;100.00
34586;BME280;20816;50.950;11.108;2023-03-03T05:30:36;99040.00;;;-0.92;100.00
34586;BME280;20816;50.950;11.108;2023-03-03T05:33:12;99043.63;;;-0.87;100.00
34586;BME280;20816;50.950;11.108;2023-03-03T05:35:39;99041.16;;;-0.82;100.00
34586;BME280;20816;50.950;11.108;2023-03-03T05:38:26;99054.28;;;-0.74;100.00
34586;BME280;20816;50.950;11.108;2023-03-03T05:40:53;99054.59;;;-0.92;100.00
34586;BME280;20816;50.950;11.108;2023-03-03T05:43:21;99045.44;;;-0.82;100.00
34586;BME280;20816;50.950;11.108;2023-03-03T05:46:10;99041.34;;;-0.76;100.00
34586;BME280;20816;50.950;11.108;2023-03-03T05:48:37;99047.38;;;-0.75;100.00
34586;BME280;20816;50.950;11.108;2023-03-03T05:51:03;99048.25;;;-0.75;100.00
34586;BME280;20816;50.950;11.108;2023-03-03T05:53:39;99056.06;;;-0.73;100.00
34586;BME280;20816;50.950;11.108;2023-03-03T05:56:06;99056.06;;;-0.73;100.00
34586;BME280;20816;50.950;11.108;2023-03-03T05:58:33;99054.88;;;-0.83;100.00
34586;BME280;20816;50.950;11.108;2023-03-03T06:00:59;99058.06;;;-0.92;100.00
34586;BME280;20816;50.950;11.108;2023-03-03T06:03:26;99053.28;;;-0.79;100.00
34586;BME280;20816;50.950;11.108;2023-03-03T06:05:58;99051.63;;;-0.77;100.00
34586;BME280;20816;50.950;11.108;2023-03-03T06:08:25;99044.06;;;-0.71;100.00
34586;BME280;20816;50.950;11.108;2023-03-03T06:10:51;99059.56;;;-0.71;100.00
34586;BME280;20816;50.950;11.108;2023-03-03T06:13:18;99064.81;;;-0.68;100.00
34586;BME280;20816;50.950;11.108;2023-03-03T06:15:45;99065.06;;;-0.59;100.00
34586;BME280;20816;50.950;11.108;2023-03-03T06:18:24;99063.31;;;-0.60;100.00
34586;BME280;20816;50.950;11.108;2023-03-03T06:20:52;99064.81;;;-0.68;100.00
34586;BME280;20816;50.950;11.108;2023-03-03T06:23:19;99074.69;;;-0.82;100.00
34586;BME280;20816;50.950;11.108;2023-03-03T06:25:46;99070.56;;;-0.77;100.00
34586;BME280;20816;50.950;11.108;2023-03-03T06:28:19;99070.59;;;-0.75;100.00
34586;BME280;20816;50.950;11.108;2023-03-03T06:30:46;99069.88;;;-0.71;100.00
34586;BME280;20816;50.950;11.108;2023-03-03T06:33:12;99069.28;;;-0.63;100.00
34586;BME280;20816;50.950;11.108;2023-03-03T06:35:39;99076.72;;;-0.73;100.00
34586;BME280;20816;50.950;11.108;2023-03-03T06:38:06;99077.66;;;-0.70;100.00
34586;BME280;20816;50.950;11.108;2023-03-03T06:40:37;99078.63;;;-0.66;100.00
34586;BME280;20816;50.950;11.108;2023-03-03T06:43:10;99089.63;;;-0.73;100.00
34586;BME280;20816;50.950;11.108;2023-03-03T06:45:37;99089.34;;;-0.54;100.00
34586;BME280;20816;50.950;11.108;2023-03-03T06:48:04;99088.03;;;-0.68;100.00
34586;BME280;20816;50.950;11.108;2023-03-03T06:50:31;99094.22;;;-0.63;100.00
34586;BME280;20816;50.950;11.108;2023-03-03T06:53:17;99093.44;;;-0.61;100.00
34586;BME280;20816;50.950;11.108;2023-03-03T06:55:44;99085.00;;;-0.55;100.00
34586;BME280;20816;50.950;11.108;2023-03-03T06:58:19;99091.06;;;-0.53;100.00
34586;BME280;20816;50.950;11.108;2023-03-03T07:00:56;99084.53;;;-0.70;100.00
34586;BME280;20816;50.950;11.108;2023-03-03T07:03:25;99087.31;;;-0.64;100.00
34586;BME280;20816;50.950;11.108;2023-03-03T07:06:01;99082.22;;;-0.61;100.00
34586;BME280;20816;50.950;11.108;2023-03-03T07:08:34;99084.84;;;-0.60;100.00
34586;BME280;20816;50.950;11.108;2023-03-03T07:11:10;99091.00;;;-0.56;100.00
34586;BME280;20816;50.950;11.108;2023-03-03T07:13:52;99076.63;;;-0.48;100.00
34586;BME280;20816;50.950;11.108;2023-03-03T07:16:25;99084.63;;;-0.39;100.00
34586;BME280;20816;50.950;11.108;2023-03-03T07:18:54;99087.16;;;-0.40;100.00
34586;BME280;20816;50.950;11.108;2023-03-03T07:21:32;99086.16;;;-0.45;100.00
34586;BME280;20816;50.950;11.108;2023-03-03T07:24:07;99093.34;;;-0.34;100.00
34586;BME280;20816;50.950;11.108;2023-03-03T07:26:41;99089.88;;;-0.36;100.00
34586;BME280;20816;50.950;11.108;2023-03-03T07:29:24;99094.84;;;-0.42;100.00
34586;BME280;20816;50.950;11.108;2023-03-03T07:31:54;99103.41;;;-0.43;100.00
34586;BME280;20816;50.950;11.108;2023-03-03T07:34:48;99106.84;;;-0.44;100.00
34586;BME280;20816;50.950;11.108;2023-03-03T07:37:36;99115.50;;;-0.42;100.00
34586;BME280;20816;50.950;11.108;2023-03-03T07:42:54;99130.00;;;-0.47;100.00
34586;BME280;20816;50.950;11.108;2023-03-03T07:45:25;99134.88;;;-0.28;100.00
34586;BME280;20816;50.950;11.108;2023-03-03T07:48:03;99128.84;;;-0.28;100.00
34586;BME280;20816;50.950;11.108;2023-03-03T07:50:34;99126.78;;;-0.40;100.00
34586;BME280;20816;50.950;11.108;2023-03-03T07:53:01;99131.09;;;-0.39;100.00
34586;BME280;20816;50.950;11.108;2023-03-03T07:55:35;99131.50;;;-0.53;100.00
34586;BME280;20816;50.950;11.108;2023-03-03T08:01:30;99143.66;;;-0.22;100.00
34586;BME280;20816;50.950;11.108;2023-03-03T08:04:00;99142.81;;;-0.21;100.00
34586;BME280;20816;50.950;11.108;2023-03-03T08:06:52;99148.81;;;-0.22;100.00
34586;BME280;20816;50.950;11.108;2023-03-03T08:12:14;99134.69;;;-0.34;100.00
34586;BME280;20816;50.950;11.108;2023-03-03T08:14:44;99142.03;;;-0.47;100.00
34586;BME280;20816;50.950;11.108;2023-03-03T08:17:22;99154.72;;;-0.55;100.00
34586;BME280;20816;50.950;11.108;2023-03-03T08:19:50;99152.22;;;-0.52;100.00
34586;BME280;20816;50.950;11.108;2023-03-03T08:22:28;99157.69;;;-0.41;100.00
34586;BME280;20816;50.950;11.108;2023-03-03T08:24:56;99163.69;;;-0.42;100.00
34586;BME280;20816;50.950;11.108;2023-03-03T08:27:23;99168.81;;;-0.44;100.00
34586;BME280;20816;50.950;11.108;2023-03-03T08:29:49;99159.63;;;-0.34;100.00
34586;BME280;20816;50.950;11.108;2023-03-03T08:32:16;99153.72;;;-0.32;100.00
34586;BME280;20816;50.950;11.108;2023-03-03T08:34:43;99144.22;;;-0.33;100.00
34586;BME280;20816;50.950;11.108;2023-03-03T08:37:09;99144.47;;;-0.52;100.00
34586;BME280;20816;50.950;11.108;2023-03-03T08:39:36;99152.47;;;-0.43;100.00
34586;BME280;20816;50.950;11.108;2023-03-03T08:42:03;99156.09;;;-0.38;100.00
34586;BME280;20816;50.950;11.108;2023-03-03T08:44:30;99155.66;;;-0.24;100.00
34586;BME280;20816;50.950;11.108;2023-03-03T08:46:57;99152.53;;;-0.41;100.00
34586;BME280;20816;50.950;11.108;2023-03-03T08:49:23;99159.25;;;-0.18;100.00
34586;BME280;20816;50.950;11.108;2023-03-03T08:51:50;99162.56;;;-0.23;100.00
34586;BME280;20816;50.950;11.108;2023-03-03T08:54:18;99165.03;;;-0.26;100.00
34586;BME280;20816;50.950;11.108;2023-03-03T08:56:44;99165.50;;;-0.40;100.00
34586;BME280;20816;50.950;11.108;2023-03-03T08:59:11;99170.28;;;-0.52;100.00
34586;BME280;20816;50.950;11.108;2023-03-03T09:01:38;99172.41;;;-0.39;100.00
34586;BME280;20816;50.950;11.108;2023-03-03T09:04:07;99178.69;;;-0.58;100.00
34586;BME280;20816;50.950;11.108;2023-03-03T09:06:33;99185.28;;;-0.40;100.00
34586;BME280;20816;50.950;11.108;2023-03-03T09:09:00;99183.97;;;-0.26;100.00
34586;BME280;20816;50.950;11.108;2023-03-03T09:11:28;99186.44;;;-0.31;100.00
34586;BME280;20816;50.950;11.108;2023-03-03T09:14:05;99191.22;;;-0.16;100.00
34586;BME280;20816;50.950;11.108;2023-03-03T09:16:37;99190.34;;;-0.16;100.00
34586;BME280;20816;50.950;11.108;2023-03-03T09:19:30;99189.50;;;-0.15;100.00
34586;BME280;20816;50.950;11.108;2023-03-03T09:22:08;99189.78;;;-0.06;100.00
34586;BME280;20816;50.950;11.108;2023-03-03T09:24:38;99189.38;;;-0.18;100.00
34586;BME280;20816;50.950;11.108;2023-03-03T09:27:13;99188.38;;;-0.23;100.00
34586;BME280;20816;50.950;11.108;2023-03-03T09:29:43;99184.22;;;-0.18;100.00
34586;BME280;20816;50.950;11.108;2023-03-03T09:32:36;99184.78;;;-0.29;100.00
34586;BME280;20816;50.950;11.108;2023-03-03T09:35:36;99186.63;;;-0.24;100.00
34586;BME280;20816;50.950;11.108;2023-03-03T09:38:25;99191.63;;;-0.01;100.00
34586;BME280;20816;50.950;11.108;2023-03-03T09:41:15;99188.56;;;-0.17;100.00
34586;BME280;20816;50.950;11.108;2023-03-03T09:49:32;99187.63;;;0.09;100.00
34586;BME280;20816;50.950;11.108;2023-03-03T09:54:51;99186.81;;;0.10;100.00
34586;BME280;20816;50.950;11.108;2023-03-03T10:00:30;99181.06;;;0.20;100.00
34586;BME280;20816;50.950;11.108;2023-03-03T10:05:51;99192.75;;;0.38;100.00
34586;BME280;20816;50.950;11.108;2023-03-03T10:11:22;99188.66;;;0.46;100.00
34586;BME280;20816;50.950;11.108;2023-03-03T10:14:07;99197.19;;;0.42;100.00
34586;BME280;20816;50.950;11.108;2023-03-03T10:17:01;99196.53;;;0.49;100.00
34586;BME280;20816;50.950;11.108;2023-03-03T10:22:17;99188.78;;;0.49;100.00
34586;BME280;20816;50.950;11.108;2023-03-03T10:25:02;99198.13;;;0.45;100.00
34586;BME280;20816;50.950;11.108;2023-03-03T10:33:25;99187.41;;;0.63;100.00
34586;BME280;20816;50.950;11.108;2023-03-03T10:47:44;99190.63;;;0.86;100.00
34586;BME280;20816;50.950;11.108;2023-03-03T10:53:21;99191.88;;;1.02;100.00
34586;BME280;20816;50.950;11.108;2023-03-03T10:56:06;99193.25;;;0.88;100.00
34586;BME280;20816;50.950;11.108;2023-03-03T11:01:23;99192.59;;;0.96;100.00
34586;BME280;20816;50.950;11.108;2023-03-03T11:12:22;99190.53;;;1.16;100.00
34586;BME280;20816;50.950;11.108;2023-03-03T11:23:54;99190.00;;;0.96;100.00
34586;BME280;20816;50.950;11.108;2023-03-03T11:32:08;99188.16;;;1.25;100.00
34586;BME280;20816;50.950;11.108;2023-03-03T11:37:49;99175.66;;;1.44;100.00
34586;BME280;20816;50.950;11.108;2023-03-03T11:40:36;99175.56;;;1.39;100.00
34586;BME280;20816;50.950;11.108;2023-03-03T11:46:08;99174.22;;;1.55;100.00
34586;BME280;20816;50.950;11.108;2023-03-03T11:48:40;99170.84;;;1.59;100.00
34586;BME280;20816;50.950;11.108;2023-03-03T11:51:16;99168.94;;;1.52;100.00
34586;BME280;20816;50.950;11.108;2023-03-03T11:53:58;99170.19;;;1.31;100.00
34586;BME280;20816;50.950;11.108;2023-03-03T11:56:33;99170.03;;;1.25;100.00
34586;BME280;20816;50.950;11.108;2023-03-03T11:59:13;99173.34;;;1.20;100.00
34586;BME280;20816;50.950;11.108;2023-03-03T12:04:41;99160.97;;;1.44;100.00
34586;BME280;20816;50.950;11.108;2023-03-03T12:07:26;99160.97;;;1.44;100.00
34586;BME280;20816;50.950;11.108;2023-03-03T12:10:12;99160.25;;;1.50;100.00
34586;BME280;20816;50.950;11.108;2023-03-03T12:12:46;99168.72;;;1.43;100.00
34586;BME280;20816;50.950;11.108;2023-03-03T12:15:27;99162.06;;;1.54;100.00
34586;BME280;20816;50.950;11.108;2023-03-03T12:18:01;99155.16;;;1.53;100.00
34586;BME280;20816;50.950;11.108;2023-03-03T12:20:37;99157.13;;;1.63;100.00
34586;BME280;20816;50.950;11.108;2023-03-03T12:25:50;99145.53;;;1.47;98.84
34586;BME280;20816;50.950;11.108;2023-03-03T12:28:25;99146.41;;;1.48;99.66
34586;BME280;20816;50.950;11.108;2023-03-03T12:31:19;99151.00;;;1.61;99.20
34586;BME280;20816;50.950;11.108;2023-03-03T12:47:24;99146.63;;;1.96;98.11
34586;BME280;20816;50.950;11.108;2023-03-03T12:53:00;99141.50;;;1.99;96.91
34586;BME280;20816;50.950;11.108;2023-03-03T12:56:03;99138.09;;;2.03;97.38
34586;BME280;20816;50.950;11.108;2023-03-03T13:04:22;99132.88;;;2.02;96.76
34586;BME280;20816;50.950;11.108;2023-03-03T13:12:44;99123.22;;;1.94;98.13
34586;BME280;20816;50.950;11.108;2023-03-03T13:15:15;99125.06;;;1.99;98.61
34586;BME280;20816;50.950;11.108;2023-03-03T13:29:29;99130.44;;;2.08;93.70
34586;BME280;20816;50.950;11.108;2023-03-03T13:32:02;99133.03;;;2.09;93.13
34586;BME280;20816;50.950;11.108;2023-03-03T13:37:09;99123.81;;;2.22;93.89
34586;BME280;20816;50.950;11.108;2023-03-03T13:40:08;99120.72;;;2.41;94.24
34586;BME280;20816;50.950;11.108;2023-03-03T13:48:51;99128.81;;;2.13;93.45
34586;BME280;20816;50.950;11.108;2023-03-03T13:51:43;99120.53;;;2.32;92.20
34586;BME280;20816;50.950;11.108;2023-03-03T13:57:43;99114.53;;;2.35;91.84
34586;BME280;20816;50.950;11.108;2023-03-03T14:00:33;99105.16;;;2.41;91.45
34586;BME280;20816;50.950;11.108;2023-03-03T14:03:30;99106.56;;;2.24;91.98
34586;BME280;20816;50.950;11.108;2023-03-03T14:06:25;99106.59;;;2.27;92.79
34586;BME280;20816;50.950;11.108;2023-03-03T14:09:17;99104.84;;;2.26;91.22
34586;BME280;20816;50.950;11.108;2023-03-03T14:12:40;99109.16;;;2.24;93.12
34586;BME280;20816;50.950;11.108;2023-03-03T14:15:02;99101.16;;;2.12;93.86
34586;BME280;20816;50.950;11.108;2023-03-03T14:20:23;99101.78;;;2.45;92.93
34586;BME280;20816;50.950;11.108;2023-03-03T14:22:57;99095.19;;;2.63;91.67
34586;BME280;20816;50.950;11.108;2023-03-03T14:25:25;99088.03;;;2.51;91.28
34586;BME280;20816;50.950;11.108;2023-03-03T14:27:59;99101.50;;;2.30;93.36
34586;BME280;20816;50.950;11.108;2023-03-03T14:30:31;99095.88;;;2.09;93.14
34586;BME280;20816;50.950;11.108;2023-03-03T14:33:18;99090.00;;;2.17;93.31
34586;BME280;20816;50.950;11.108;2023-03-03T14:38:36;99094.56;;;2.29;92.41
34586;BME280;20816;50.950;11.108;2023-03-03T14:41:12;99085.13;;;2.34;91.49
34586;BME280;20816;50.950;11.108;2023-03-03T14:43:42;99087.81;;;2.37;91.54
34586;BME280;20816;50.950;11.108;2023-03-03T14:46:37;99075.94;;;2.51;92.01
34586;BME280;20816;50.950;11.108;2023-03-03T14:49:27;99074.84;;;2.37;91.32
34586;BME280;20816;50.950;11.108;2023-03-03T14:52:01;99074.03;;;2.41;92.37
34586;BME280;20816;50.950;11.108;2023-03-03T14:54:37;99075.72;;;2.39;91.61
34586;BME280;20816;50.950;11.108;2023-03-03T14:57:15;99079.31;;;2.46;91.15
34586;BME280;20816;50.950;11.108;2023-03-03T15:02:36;99070.66;;;2.45;91.70
34586;BME280;20816;50.950;11.108;2023-03-03T15:05:21;99068.66;;;2.32;91.47
34586;BME280;20816;50.950;11.108;2023-03-03T15:07:54;99068.63;;;2.29;91.97
34586;BME280;20816;50.950;11.108;2023-03-03T15:10:41;99065.09;;;2.27;92.84
34586;BME280;20816;50.950;11.108;2023-03-03T15:15:52;99058.38;;;1.91;94.35
34586;BME280;20816;50.950;11.108;2023-03-03T15:18:27;99060.22;;;1.95;94.38
34586;BME280;20816;50.950;11.108;2023-03-03T15:21:02;99055.28;;;2.11;94.98
34586;BME280;20816;50.950;11.108;2023-03-03T15:23:39;99051.94;;;2.15;94.05
34586;BME280;20816;50.950;11.108;2023-03-03T15:29:06;99057.88;;;2.11;94.61
34586;BME280;20816;50.950;11.108;2023-03-03T15:31:59;99050.94;;;2.10;92.98
34586;BME280;20816;50.950;11.108;2023-03-03T15:34:39;99041.59;;;2.18;93.65
34586;BME280;20816;50.950;11.108;2023-03-03T15:37:25;99048.38;;;2.11;93.12
34586;BME280;20816;50.950;11.108;2023-03-03T15:42:48;99055.13;;;2.03;93.39
34586;BME280;20816;50.950;11.108;2023-03-03T15:58:59;99030.16;;;2.07;94.88
34586;BME280;20816;50.950;11.108;2023-03-03T16:01:35;99031.50;;;1.86;95.00
34586;BME280;20816;50.950;11.108;2023-03-03T16:04:10;99031.56;;;1.89;95.42
34586;BME280;20816;50.950;11.108;2023-03-03T16:07:00;99034.03;;;1.83;96.38
34586;BME280;20816;50.950;11.108;2023-03-03T16:09:46;99031.50;;;1.86;96.43
34586;BME280;20816;50.950;11.108;2023-03-03T16:20:46;99027.81;;;1.75;96.78
34586;BME280;20816;50.950;11.108;2023-03-03T16:23:39;99029.44;;;1.70;97.52
34586;BME280;20816;50.950;11.108;2023-03-03T16:26:53;99031.97;;;1.67;98.06
34586;BME280;20816;50.950;11.108;2023-03-03T16:32:20;99040.75;;;1.74;97.80